sensor_id;sensor_type;location;lat;lon;timestamp;pressure;altitude;pressure_sealevel;temperature;humidity
55576;BME280;41437;45.478;9.116;2022-10-16T00:01:56;100219.28;;;16.76;97.92
55576;BME280;41437;45.478;9.116;2022-10-16T00:04:57;100220.97;;;16.77;96.80
55576;BME280;41437;45.478;9.116;2022-10-16T00:08:01;100199.63;;;16.62;96.74
55576;BME280;41437;45.478;9.116;2022-10-16T00:11:05;100211.78;;;16.76;97.81
55576;BME280;41437;45.478;9.116;2022-10-16T00:14:09;100189.44;;;16.52;96.91
55576;BME280;41437;45.478;9.116;2022-10-16T00:17:11;100224.63;;;16.72;96.82
55576;BME280;41437;45.478;9.116;2022-10-16T00:20:13;100193.91;;;16.48;96.88
55576;BME280;41437;45.478;9.116;2022-10-16T00:23:16;100221.00;;;16.67;97.48
55576;BME280;41437;45.478;9.116;2022-10-16T00:26:18;100214.91;;;16.65;97.90
55576;BME280;41437;45.478;9.116;2022-10-16T00:29:20;100224.63;;;16.67;96.68
55576;BME280;41437;45.478;9.116;2022-10-16T00:32:22;100197.72;;;16.57;97.23
55576;BME280;41437;45.478;9.116;2022-10-16T00:35:23;100216.06;;;16.64;96.63
55576;BME280;41437;45.478;9.116;2022-10-16T00:38:26;100220.44;;;16.70;98.37
55576;BME280;41437;45.478;9.116;2022-10-16T00:41:29;100227.97;;;16.69;97.63
55576;BME280;41437;45.478;9.116;2022-10-16T00:44:47;100202.81;;;16.50;96.78
55576;BME280;41437;45.478;9.116;2022-10-16T00:47:51;100206.75;;;16.44;97.37
55576;BME280;41437;45.478;9.116;2022-10-16T00:50:55;100203.44;;;16.42;97.63
55576;BME280;41437;45.478;9.116;2022-10-16T00:53:59;100191.50;;;16.42;98.12
55576;BME280;41437;45.478;9.116;2022-10-16T00:57:04;100219.09;;;16.62;98.66
55576;BME280;41437;45.478;9.116;2022-10-16T01:00:09;100214.97;;;16.59;99.04
55576;BME280;41437;45.478;9.116;2022-10-16T01:03:24;100216.06;;;16.58;98.56
55576;BME280;41437;45.478;9.116;2022-10-16T01:06:35;100221.63;;;16.64;98.01
55576;BME280;41437;45.478;9.116;2022-10-16T01:09:50;100200.03;;;16.50;98.04
55576;BME280;41437;45.478;9.116;2022-10-16T01:12:59;100199.44;;;16.53;98.44
55576;BME280;41437;45.478;9.116;2022-10-16T01:16:06;100223.84;;;16.62;98.15
55576;BME280;41437;45.478;9.116;2022-10-16T01:19:15;100211.44;;;16.49;97.01
55576;BME280;41437;45.478;9.116;2022-10-16T01:22:19;100211.47;;;16.44;97.08
55576;BME280;41437;45.478;9.116;2022-10-16T01:25:31;100172.72;;;16.23;97.29
55576;BME280;41437;45.478;9.116;2022-10-16T01:28:42;100197.56;;;16.44;97.74
55576;BME280;41437;45.478;9.116;2022-10-16T01:31:49;100212.75;;;16.56;98.10
55576;BME280;41437;45.478;9.116;2022-10-16T01:34:57;100202.00;;;16.45;99.10
55576;BME280;41437;45.478;9.116;2022-10-16T01:38:03;100222.03;;;16.47;98.34
55576;BME280;41437;45.478;9.116;2022-10-16T01:41:09;100213.44;;;16.43;99.45
55576;BME280;41437;45.478;9.116;2022-10-16T01:44:17;100220.06;;;16.47;99.29
55576;BME280;41437;45.478;9.116;2022-10-16T01:47:22;100198.81;;;16.32;98.72
55576;BME280;41437;45.478;9.116;2022-10-16T01:50:26;100192.44;;;16.27;98.57
55576;BME280;41437;45.478;9.116;2022-10-16T01:53:29;100196.84;;;16.28;98.60
55576;BME280;41437;45.478;9.116;2022-10-16T01:56:32;100207.91;;;16.38;98.91
55576;BME280;41437;45.478;9.116;2022-10-16T01:59:40;100229.81;;;16.45;99.82
55576;BME280;41437;45.478;9.116;2022-10-16T02:02:46;100211.81;;;16.37;98.26
55576;BME280;41437;45.478;9.116;2022-10-16T02:05:52;100228.50;;;16.37;98.25
55576;BME280;41437;45.478;9.116;2022-10-16T02:08:55;100223.53;;;16.34;98.50
55576;BME280;41437;45.478;9.116;2022-10-16T02:11:59;100226.88;;;16.31;98.58
55576;BME280;41437;45.478;9.116;2022-10-16T02:15:06;100211.16;;;16.16;98.63
55576;BME280;41437;45.478;9.116;2022-10-16T02:18:07;100226.34;;;16.29;99.22
55576;BME280;41437;45.478;9.116;2022-10-16T02:21:16;100228.81;;;16.30;100.00
55576;BME280;41437;45.478;9.116;2022-10-16T02:24:23;100195.88;;;16.14;100.00
55576;BME280;41437;45.478;9.116;2022-10-16T02:27:34;100214.09;;;16.30;100.00
55576;BME280;41437;45.478;9.116;2022-10-16T02:30:40;100209.94;;;16.27;100.00
55576;BME280;41437;45.478;9.116;2022-10-16T02:33:45;100232.38;;;16.36;100.00
55576;BME280;41437;45.478;9.116;2022-10-16T02:36:47;100235.72;;;16.38;100.00
55576;BME280;41437;45.478;9.116;2022-10-16T02:39:50;100202.03;;;16.05;100.00
55576;BME280;41437;45.478;9.116;2022-10-16T02:42:53;100230.22;;;16.28;100.00
55576;BME280;41437;45.478;9.116;2022-10-16T02:45:56;100215.31;;;16.14;100.00
55576;BME280;41437;45.478;9.116;2022-10-16T02:48:58;100243.03;;;16.29;100.00
55576;BME280;41437;45.478;9.116;2022-10-16T02:51:59;100241.34;;;16.28;100.00
55576;BME280;41437;45.478;9.116;2022-10-16T02:55:01;100246.34;;;16.31;100.00
55576;BME280;41437;45.478;9.116;2022-10-16T02:58:03;100253.56;;;16.32;100.00
55576;BME280;41437;45.478;9.116;2022-10-16T03:01:06;100246.38;;;16.26;100.00
55576;BME280;41437;45.478;9.116;2022-10-16T03:04:08;100247.50;;;16.25;100.00
55576;BME280;41437;45.478;9.116;2022-10-16T03:07:10;100245.00;;;16.23;100.00
55576;BME280;41437;45.478;9.116;2022-10-16T03:10:11;100202.94;;;15.96;100.00
55576;BME280;41437;45.478;9.116;2022-10-16T03:13:13;100250.28;;;16.25;100.00
55576;BME280;41437;45.478;9.116;2022-10-16T03:16:16;100248.34;;;16.25;100.00
55576;BME280;41437;45.478;9.116;2022-10-16T03:19:18;100240.06;;;16.15;100.00
55576;BME280;41437;45.478;9.116;2022-10-16T03:22:20;100246.16;;;16.17;100.00
55576;BME280;41437;45.478;9.116;2022-10-16T03:25:22;100245.91;;;16.14;100.00
55576;BME280;41437;45.478;9.116;2022-10-16T03:28:24;100246.72;;;16.14;100.00
55576;BME280;41437;45.478;9.116;2022-10-16T03:31:27;100250.31;;;16.20;100.00
55576;BME280;41437;45.478;9.116;2022-10-16T03:34:28;100252.78;;;16.26;100.00
55576;BME280;41437;45.478;9.116;2022-10-16T03:37:30;100258.59;;;16.30;100.00
55576;BME280;41437;45.478;9.116;2022-10-16T03:40:32;100256.09;;;16.28;100.00
55576;BME280;41437;45.478;9.116;2022-10-16T03:43:33;100265.00;;;16.25;100.00
55576;BME280;41437;45.478;9.116;2022-10-16T03:46:37;100257.53;;;16.21;100.00
55576;BME280;41437;45.478;9.116;2022-10-16T03:49:39;100267.25;;;16.23;100.00
55576;BME280;41437;45.478;9.116;2022-10-16T03:52:41;100257.25;;;16.22;100.00
55576;BME280;41437;45.478;9.116;2022-10-16T03:55:43;100260.88;;;16.18;100.00
55576;BME280;41437;45.478;9.116;2022-10-16T03:58:45;100251.50;;;16.08;100.00
55576;BME280;41437;45.478;9.116;2022-10-16T04:01:48;100278.97;;;16.20;100.00
55576;BME280;41437;45.478;9.116;2022-10-16T04:04:49;100271.44;;;16.21;100.00
55576;BME280;41437;45.478;9.116;2022-10-16T04:07:51;100272.56;;;16.20;100.00
55576;BME280;41437;45.478;9.116;2022-10-16T04:10:53;100274.78;;;16.18;100.00
55576;BME280;41437;45.478;9.116;2022-10-16T04:13:55;100282.56;;;16.21;100.00
55576;BME280;41437;45.478;9.116;2022-10-16T04:16:58;100266.78;;;16.11;100.00
55576;BME280;41437;45.478;9.116;2022-10-16T04:20:00;100296.72;;;16.19;100.00
55576;BME280;41437;45.478;9.116;2022-10-16T04:23:02;100296.22;;;16.17;100.00
55576;BME280;41437;45.478;9.116;2022-10-16T04:26:04;100302.59;;;16.18;100.00
55576;BME280;41437;45.478;9.116;2022-10-16T04:29:06;100297.34;;;16.16;100.00
55576;BME280;41437;45.478;9.116;2022-10-16T04:32:09;100275.16;;;16.01;100.00
55576;BME280;41437;45.478;9.116;2022-10-16T04:35:11;100271.84;;;15.99;100.00
55576;BME280;41437;45.478;9.116;2022-10-16T04:38:12;100285.72;;;16.04;100.00
55576;BME280;41437;45.478;9.116;2022-10-16T04:41:14;100295.69;;;16.10;100.00
55576;BME280;41437;45.478;9.116;2022-10-16T04:44:16;100299.28;;;16.11;100.00
55576;BME280;41437;45.478;9.116;2022-10-16T04:47:19;100299.03;;;16.12;100.00
55576;BME280;41437;45.478;9.116;2022-10-16T04:50:20;100279.91;;;16.00;100.00
55576;BME280;41437;45.478;9.116;2022-10-16T04:53:22;100299.88;;;16.07;100.00
55576;BME280;41437;45.478;9.116;2022-10-16T04:56:24;100305.97;;;16.09;100.00
55576;BME280;41437;45.478;9.116;2022-10-16T04:59:25;100301.00;;;16.06;100.00
55576;BME280;41437;45.478;9.116;2022-10-16T05:02:28;100301.53;;;16.08;100.00
55576;BME280;41437;45.478;9.116;2022-10-16T05:05:30;100298.75;;;16.08;100.00
55576;BME280;41437;45.478;9.116;2022-10-16T05:08:32;100310.09;;;16.17;100.00
55576;BME280;41437;45.478;9.116;2022-10-16T05:11:34;100275.75;;;15.93;100.00
55576;BME280;41437;45.478;9.116;2022-10-16T05:14:36;100314.31;;;16.09;100.00
55576;BME280;41437;45.478;9.116;2022-10-16T05:17:39;100285.78;;;15.89;100.00
55576;BME280;41437;45.478;9.116;2022-10-16T05:20:41;100311.28;;;16.01;100.00
55576;BME280;41437;45.478;9.116;2022-10-16T05:23:43;100298.81;;;15.93;100.00
55576;BME280;41437;45.478;9.116;2022-10-16T05:26:45;100305.56;;;15.82;100.00
55576;BME280;41437;45.478;9.116;2022-10-16T05:29:47;100302.78;;;15.82;100.00
55576;BME280;41437;45.478;9.116;2022-10-16T05:32:51;100316.66;;;15.87;100.00
55576;BME280;41437;45.478;9.116;2022-10-16T05:35:52;100311.66;;;15.89;100.00
55576;BME280;41437;45.478;9.116;2022-10-16T05:38:54;100323.00;;;15.93;100.00
55576;BME280;41437;45.478;9.116;2022-10-16T05:41:56;100322.44;;;15.96;100.00
55576;BME280;41437;45.478;9.116;2022-10-16T05:44:58;100308.00;;;15.89;100.00
55576;BME280;41437;45.478;9.116;2022-10-16T05:48:02;100315.00;;;15.86;100.00
55576;BME280;41437;45.478;9.116;2022-10-16T05:51:06;100325.53;;;15.89;100.00
55576;BME280;41437;45.478;9.116;2022-10-16T05:54:08;100334.34;;;16.01;100.00
55576;BME280;41437;45.478;9.116;2022-10-16T05:57:10;100331.56;;;16.01;100.00
55576;BME280;41437;45.478;9.116;2022-10-16T06:00:12;100337.16;;;15.96;100.00
55576;BME280;41437;45.478;9.116;2022-10-16T06:03:15;100350.78;;;15.98;100.00
55576;BME280;41437;45.478;9.116;2022-10-16T06:06:18;100349.94;;;16.02;100.00
55576;BME280;41437;45.478;9.116;2022-10-16T06:09:20;100351.31;;;16.05;100.00
55576;BME280;41437;45.478;9.116;2022-10-16T06:12:22;100349.91;;;16.07;100.00
55576;BME280;41437;45.478;9.116;2022-10-16T06:15:24;100344.09;;;16.04;100.00
55576;BME280;41437;45.478;9.116;2022-10-16T06:18:28;100343.28;;;15.98;100.00
55576;BME280;41437;45.478;9.116;2022-10-16T06:21:29;100369.63;;;16.11;100.00
55576;BME280;41437;45.478;9.116;2022-10-16T06:24:31;100335.53;;;15.90;100.00
55576;BME280;41437;45.478;9.116;2022-10-16T06:27:33;100358.50;;;16.06;100.00
55576;BME280;41437;45.478;9.116;2022-10-16T06:30:34;100380.13;;;16.19;100.00
55576;BME280;41437;45.478;9.116;2022-10-16T06:33:38;100387.66;;;16.24;100.00
55576;BME280;41437;45.478;9.116;2022-10-16T06:36:40;100383.22;;;16.18;100.00
55576;BME280;41437;45.478;9.116;2022-10-16T06:39:43;100400.69;;;16.23;100.00
55576;BME280;41437;45.478;9.116;2022-10-16T06:42:45;100339.97;;;15.91;100.00
55576;BME280;41437;45.478;9.116;2022-10-16T06:45:50;100369.63;;;16.11;100.00
55576;BME280;41437;45.478;9.116;2022-10-16T06:48:59;100412.91;;;16.32;100.00
55576;BME280;41437;45.478;9.116;2022-10-16T06:52:02;100382.91;;;16.19;100.00
55576;BME280;41437;45.478;9.116;2022-10-16T06:55:04;100414.81;;;16.42;100.00
55576;BME280;41437;45.478;9.116;2022-10-16T06:58:06;100401.53;;;16.29;100.00
55576;BME280;41437;45.478;9.116;2022-10-16T07:01:09;100418.97;;;16.40;100.00
55576;BME280;41437;45.478;9.116;2022-10-16T07:04:12;100431.44;;;16.52;100.00
55576;BME280;41437;45.478;9.116;2022-10-16T07:07:14;100417.31;;;16.39;100.00
55576;BME280;41437;45.478;9.116;2022-10-16T07:10:15;100452.91;;;16.42;100.00
55576;BME280;41437;45.478;9.116;2022-10-16T07:13:17;100449.84;;;16.43;100.00
55576;BME280;41437;45.478;9.116;2022-10-16T07:16:21;100435.91;;;16.48;100.00
55576;BME280;41437;45.478;9.116;2022-10-16T07:19:24;100412.88;;;16.38;100.00
55576;BME280;41437;45.478;9.116;2022-10-16T07:22:28;100455.81;;;16.71;100.00
55576;BME280;41437;45.478;9.116;2022-10-16T07:25:29;100439.94;;;16.71;100.00
55576;BME280;41437;45.478;9.116;2022-10-16T07:28:31;100426.94;;;16.62;100.00
55576;BME280;41437;45.478;9.116;2022-10-16T07:31:33;100466.34;;;16.84;100.00
55576;BME280;41437;45.478;9.116;2022-10-16T07:34:37;100468.53;;;16.92;100.00
55576;BME280;41437;45.478;9.116;2022-10-16T07:37:38;100471.00;;;16.99;100.00
55576;BME280;41437;45.478;9.116;2022-10-16T07:40:40;100470.94;;;17.09;100.00
55576;BME280;41437;45.478;9.116;2022-10-16T07:43:45;100467.88;;;17.05;100.00
55576;BME280;41437;45.478;9.116;2022-10-16T07:46:49;100458.44;;;17.01;98.62
55576;BME280;41437;45.478;9.116;2022-10-16T07:49:52;100467.63;;;17.02;98.61
55576;BME280;41437;45.478;9.116;2022-10-16T07:52:54;100461.75;;;17.08;97.05
55576;BME280;41437;45.478;9.116;2022-10-16T07:55:57;100454.25;;;17.04;96.55
55576;BME280;41437;45.478;9.116;2022-10-16T07:58:59;100494.22;;;17.23;96.89
55576;BME280;41437;45.478;9.116;2022-10-16T08:02:01;100489.47;;;17.24;97.63
55576;BME280;41437;45.478;9.116;2022-10-16T08:05:08;100500.03;;;17.27;97.46
55576;BME280;41437;45.478;9.116;2022-10-16T08:08:12;100478.88;;;17.26;97.35
55576;BME280;41437;45.478;9.116;2022-10-16T08:11:14;100480.81;;;17.30;96.76
55576;BME280;41437;45.478;9.116;2022-10-16T08:14:16;100492.13;;;17.44;95.59
55576;BME280;41437;45.478;9.116;2022-10-16T08:17:18;100490.97;;;17.50;96.03
55576;BME280;41437;45.478;9.116;2022-10-16T08:20:22;100496.44;;;17.61;95.64
55576;BME280;41437;45.478;9.116;2022-10-16T08:23:24;100496.94;;;17.68;95.52
55576;BME280;41437;45.478;9.116;2022-10-16T08:26:26;100504.16;;;17.74;94.04
55576;BME280;41437;45.478;9.116;2022-10-16T08:29:28;100506.00;;;17.83;93.38
55576;BME280;41437;45.478;9.116;2022-10-16T08:32:30;100505.19;;;17.83;93.08
55576;BME280;41437;45.478;9.116;2022-10-16T08:35:33;100453.31;;;17.53;93.26
55576;BME280;41437;45.478;9.116;2022-10-16T08:38:35;100501.53;;;17.88;92.64
55576;BME280;41437;45.478;9.116;2022-10-16T08:42:11;100509.00;;;17.92;92.66
55576;BME280;41437;45.478;9.116;2022-10-16T08:45:31;100501.66;;;18.01;92.37
55576;BME280;41437;45.478;9.116;2022-10-16T08:48:42;100505.00;;;18.03;91.02
55576;BME280;41437;45.478;9.116;2022-10-16T08:51:47;100490.13;;;17.84;92.13
55576;BME280;41437;45.478;9.116;2022-10-16T08:54:53;100524.97;;;18.11;91.04
55576;BME280;41437;45.478;9.116;2022-10-16T08:57:56;100521.72;;;18.03;90.57
55576;BME280;41437;45.478;9.116;2022-10-16T09:01:01;100515.59;;;18.01;90.13
55576;BME280;41437;45.478;9.116;2022-10-16T09:04:39;100501.50;;;18.17;89.06
55576;BME280;41437;45.478;9.116;2022-10-16T09:07:52;100526.38;;;18.37;88.45
55576;BME280;41437;45.478;9.116;2022-10-16T09:10:57;100528.13;;;18.33;88.54
55576;BME280;41437;45.478;9.116;2022-10-16T09:14:04;100533.03;;;18.41;88.86
55576;BME280;41437;45.478;9.116;2022-10-16T09:17:21;100524.56;;;18.51;88.57
55576;BME280;41437;45.478;9.116;2022-10-16T09:20:35;100548.75;;;18.85;85.93
55576;BME280;41437;45.478;9.116;2022-10-16T09:23:42;100540.97;;;19.01;84.88
55576;BME280;41437;45.478;9.116;2022-10-16T09:26:44;100554.34;;;19.23;83.00
55576;BME280;41437;45.478;9.116;2022-10-16T09:29:45;100514.41;;;19.03;80.94
55576;BME280;41437;45.478;9.116;2022-10-16T09:32:50;100556.03;;;19.43;79.76
55576;BME280;41437;45.478;9.116;2022-10-16T09:35:56;100540.03;;;19.29;79.51
55576;BME280;41437;45.478;9.116;2022-10-16T09:39:05;100546.41;;;19.49;79.60
55576;BME280;41437;45.478;9.116;2022-10-16T09:42:09;100525.56;;;19.41;80.39
55576;BME280;41437;45.478;9.116;2022-10-16T09:45:21;100543.84;;;19.52;79.57
55576;BME280;41437;45.478;9.116;2022-10-16T09:48:25;100543.84;;;19.52;80.33
55576;BME280;41437;45.478;9.116;2022-10-16T09:51:29;100543.13;;;19.47;81.34
55576;BME280;41437;45.478;9.116;2022-10-16T09:54:32;100559.97;;;19.61;80.07
55576;BME280;41437;45.478;9.116;2022-10-16T09:57:34;100565.78;;;19.64;78.87
55576;BME280;41437;45.478;9.116;2022-10-16T10:00:36;100564.72;;;19.60;79.26
55576;BME280;41437;45.478;9.116;2022-10-16T10:03:43;100559.56;;;19.67;78.80
55576;BME280;41437;45.478;9.116;2022-10-16T10:06:48;100557.88;;;19.85;78.79
55576;BME280;41437;45.478;9.116;2022-10-16T10:09:52;100557.63;;;20.00;78.35
55576;BME280;41437;45.478;9.116;2022-10-16T10:12:55;100538.25;;;19.90;77.12
55576;BME280;41437;45.478;9.116;2022-10-16T10:15:57;100535.81;;;19.83;77.92
55576;BME280;41437;45.478;9.116;2022-10-16T10:18:59;100548.09;;;20.01;77.58
55576;BME280;41437;45.478;9.116;2022-10-16T10:22:01;100545.53;;;20.19;76.98
55576;BME280;41437;45.478;9.116;2022-10-16T10:25:18;100534.28;;;20.38;75.09
55576;BME280;41437;45.478;9.116;2022-10-16T10:28:43;100554.44;;;20.67;74.71
55576;BME280;41437;45.478;9.116;2022-10-16T10:31:54;100540.84;;;20.74;74.63
55576;BME280;41437;45.478;9.116;2022-10-16T10:35:12;100548.41;;;20.88;74.62
55576;BME280;41437;45.478;9.116;2022-10-16T10:38:30;100544.06;;;20.95;73.57
55576;BME280;41437;45.478;9.116;2022-10-16T10:45:17;100524.47;;;20.81;72.87
55576;BME280;41437;45.478;9.116;2022-10-16T10:48:26;100558.06;;;20.95;73.12
55576;BME280;41437;45.478;9.116;2022-10-16T10:51:42;100544.44;;;21.02;73.30
55576;BME280;41437;45.478;9.116;2022-10-16T10:54:51;100540.53;;;20.90;72.49
55576;BME280;41437;45.478;9.116;2022-10-16T10:58:22;100543.63;;;21.02;72.56
55576;BME280;41437;45.478;9.116;2022-10-16T11:01:31;100534.63;;;21.41;70.30
55576;BME280;41437;45.478;9.116;2022-10-16T11:04:54;100547.88;;;21.49;68.47
55576;BME280;41437;45.478;9.116;2022-10-16T11:08:02;100525.22;;;21.60;70.08
55576;BME280;41437;45.478;9.116;2022-10-16T11:11:08;100539.25;;;21.60;69.54
55576;BME280;41437;45.478;9.116;2022-10-16T11:14:15;100531.31;;;21.84;68.20
55576;BME280;41437;45.478;9.116;2022-10-16T11:17:21;100532.31;;;22.11;67.90
55576;BME280;41437;45.478;9.116;2022-10-16T11:20:27;100532.59;;;22.23;68.23
55576;BME280;41437;45.478;9.116;2022-10-16T11:23:35;100535.09;;;22.33;66.26
55576;BME280;41437;45.478;9.116;2022-10-16T11:26:42;100536.41;;;22.27;66.36
55576;BME280;41437;45.478;9.116;2022-10-16T11:29:52;100533.94;;;22.25;65.26
55576;BME280;41437;45.478;9.116;2022-10-16T11:33:19;100528.69;;;22.41;64.38
55576;BME280;41437;45.478;9.116;2022-10-16T11:36:27;100503.50;;;22.19;64.91
55576;BME280;41437;45.478;9.116;2022-10-16T11:39:32;100531.47;;;22.32;66.10
55576;BME280;41437;45.478;9.116;2022-10-16T11:42:37;100530.31;;;22.25;64.28
55576;BME280;41437;45.478;9.116;2022-10-16T11:45:45;100510.75;;;22.20;64.11
55576;BME280;41437;45.478;9.116;2022-10-16T11:48:51;100524.78;;;22.42;65.25
55576;BME280;41437;45.478;9.116;2022-10-16T11:52:00;100514.44;;;22.29;65.39
55576;BME280;41437;45.478;9.116;2022-10-16T11:55:14;100522.50;;;22.22;65.63
55576;BME280;41437;45.478;9.116;2022-10-16T11:58:24;100528.13;;;22.22;64.71
55576;BME280;41437;45.478;9.116;2022-10-16T12:01:38;100519.84;;;22.17;65.53
55576;BME280;41437;45.478;9.116;2022-10-16T12:04:45;100517.59;;;22.05;66.35
55576;BME280;41437;45.478;9.116;2022-10-16T12:07:57;100518.56;;;22.23;64.81
55576;BME280;41437;45.478;9.116;2022-10-16T12:11:07;100520.72;;;22.26;64.66
55576;BME280;41437;45.478;9.116;2022-10-16T12:17:38;100508.09;;;22.15;64.54
55576;BME280;41437;45.478;9.116;2022-10-16T12:20:40;100508.47;;;22.22;64.75
55576;BME280;41437;45.478;9.116;2022-10-16T12:23:48;100500.31;;;22.12;65.71
55576;BME280;41437;45.478;9.116;2022-10-16T12:26:52;100472.56;;;21.79;66.04
55576;BME280;41437;45.478;9.116;2022-10-16T12:29:55;100465.00;;;21.88;65.01
55576;BME280;41437;45.478;9.116;2022-10-16T12:33:00;100496.09;;;22.23;64.09
55576;BME280;41437;45.478;9.116;2022-10-16T12:36:05;100494.16;;;22.32;63.70
55576;BME280;41437;45.478;9.116;2022-10-16T12:39:20;100488.97;;;22.56;61.95
55576;BME280;41437;45.478;9.116;2022-10-16T12:42:31;100501.88;;;22.66;61.93
55576;BME280;41437;45.478;9.116;2022-10-16T12:45:34;100486.88;;;22.88;61.38
55576;BME280;41437;45.478;9.116;2022-10-16T12:48:38;100492.06;;;22.95;63.48
55576;BME280;41437;45.478;9.116;2022-10-16T12:51:41;100499.66;;;23.03;63.63
55576;BME280;41437;45.478;9.116;2022-10-16T12:54:43;100490.44;;;23.28;60.82
55576;BME280;41437;45.478;9.116;2022-10-16T13:01:22;100499.38;;;23.22;60.58
55576;BME280;41437;45.478;9.116;2022-10-16T13:04:43;100495.72;;;23.04;60.31
55576;BME280;41437;45.478;9.116;2022-10-16T13:07:55;100493.34;;;22.89;61.54
55576;BME280;41437;45.478;9.116;2022-10-16T13:11:07;100490.72;;;22.92;60.79
55576;BME280;41437;45.478;9.116;2022-10-16T13:14:27;100490.03;;;22.87;60.06
55576;BME280;41437;45.478;9.116;2022-10-16T13:17:39;100486.28;;;23.00;59.80
55576;BME280;41437;45.478;9.116;2022-10-16T13:20:56;100497.03;;;23.32;58.84
55576;BME280;41437;45.478;9.116;2022-10-16T13:24:10;100509.97;;;23.51;58.14
55576;BME280;41437;45.478;9.116;2022-10-16T13:27:20;100502.69;;;23.67;57.62
55576;BME280;41437;45.478;9.116;2022-10-16T13:30:27;100499.84;;;23.50;58.84
55576;BME280;41437;45.478;9.116;2022-10-16T13:33:32;100510.66;;;23.65;56.81
55576;BME280;41437;45.478;9.116;2022-10-16T13:36:43;100506.81;;;23.70;56.79
55576;BME280;41437;45.478;9.116;2022-10-16T13:39:45;100511.59;;;23.61;58.64
55576;BME280;41437;45.478;9.116;2022-10-16T13:42:48;100502.50;;;23.46;59.23
55576;BME280;41437;45.478;9.116;2022-10-16T13:45:55;100511.63;;;23.43;58.76
55576;BME280;41437;45.478;9.116;2022-10-16T13:48:58;100513.25;;;23.53;58.77
55576;BME280;41437;45.478;9.116;2022-10-16T13:52:01;100492.59;;;23.23;60.09
55576;BME280;41437;45.478;9.116;2022-10-16T13:55:03;100503.50;;;23.24;60.37
55576;BME280;41437;45.478;9.116;2022-10-16T13:58:07;100492.91;;;23.13;59.94
55576;BME280;41437;45.478;9.116;2022-10-16T14:01:16;100513.09;;;23.32;58.63
55576;BME280;41437;45.478;9.116;2022-10-16T14:04:19;100524.34;;;23.32;58.17
55576;BME280;41437;45.478;9.116;2022-10-16T14:07:25;100520.34;;;23.24;57.27
55576;BME280;41437;45.478;9.116;2022-10-16T14:10:30;100520.88;;;23.35;57.13
55576;BME280;41437;45.478;9.116;2022-10-16T14:13:37;100522.53;;;23.27;58.87
55576;BME280;41437;45.478;9.116;2022-10-16T14:16:41;100496.22;;;23.15;57.32
55576;BME280;41437;45.478;9.116;2022-10-16T14:19:46;100499.34;;;22.96;58.82
55576;BME280;41437;45.478;9.116;2022-10-16T14:22:59;100514.16;;;22.88;59.13
55576;BME280;41437;45.478;9.116;2022-10-16T14:26:16;100513.97;;;22.84;60.01
55576;BME280;41437;45.478;9.116;2022-10-16T14:29:19;100513.81;;;22.80;59.28
55576;BME280;41437;45.478;9.116;2022-10-16T14:32:23;100513.13;;;22.75;59.26
55576;BME280;41437;45.478;9.116;2022-10-16T14:35:28;100512.78;;;22.68;61.39
55576;BME280;41437;45.478;9.116;2022-10-16T14:38:32;100504.47;;;22.54;60.47
55576;BME280;41437;45.478;9.116;2022-10-16T14:41:43;100506.97;;;22.55;62.54
55576;BME280;41437;45.478;9.116;2022-10-16T14:44:46;100510.28;;;22.57;60.59
55576;BME280;41437;45.478;9.116;2022-10-16T14:47:51;100516.59;;;22.72;59.68
55576;BME280;41437;45.478;9.116;2022-10-16T14:50:54;100520.56;;;22.71;59.94
55576;BME280;41437;45.478;9.116;2022-10-16T14:53:57;100522.88;;;22.69;60.12
55576;BME280;41437;45.478;9.116;2022-10-16T14:56:58;100510.59;;;22.56;60.33
55576;BME280;41437;45.478;9.116;2022-10-16T15:00:00;100516.69;;;22.49;59.19
55576;BME280;41437;45.478;9.116;2022-10-16T15:03:02;100525.78;;;22.55;61.74
55576;BME280;41437;45.478;9.116;2022-10-16T15:06:09;100518.63;;;22.40;61.66
55576;BME280;41437;45.478;9.116;2022-10-16T15:09:13;100514.47;;;22.38;61.09
55576;BME280;41437;45.478;9.116;2022-10-16T15:12:15;100527.56;;;22.42;61.97
55576;BME280;41437;45.478;9.116;2022-10-16T15:15:32;100525.66;;;22.29;64.06
55576;BME280;41437;45.478;9.116;2022-10-16T15:18:34;100513.72;;;22.15;63.07
55576;BME280;41437;45.478;9.116;2022-10-16T15:21:37;100504.34;;;21.97;63.99
55576;BME280;41437;45.478;9.116;2022-10-16T15:24:40;100526.69;;;22.11;62.84
55576;BME280;41437;45.478;9.116;2022-10-16T15:27:41;100510.44;;;21.90;62.70
55576;BME280;41437;45.478;9.116;2022-10-16T15:30:43;100527.41;;;21.94;62.04
55576;BME280;41437;45.478;9.116;2022-10-16T15:33:46;100511.00;;;21.78;62.69
55576;BME280;41437;45.478;9.116;2022-10-16T15:36:53;100498.19;;;21.64;63.91
55576;BME280;41437;45.478;9.116;2022-10-16T15:39:58;100536.88;;;21.75;64.33
55576;BME280;41437;45.478;9.116;2022-10-16T15:42:59;100517.44;;;21.56;64.97
55576;BME280;41437;45.478;9.116;2022-10-16T15:46:04;100544.97;;;21.54;65.82
55576;BME280;41437;45.478;9.116;2022-10-16T15:49:06;100528.91;;;21.46;66.52
55576;BME280;41437;45.478;9.116;2022-10-16T15:52:08;100532.03;;;21.31;67.86
55576;BME280;41437;45.478;9.116;2022-10-16T15:55:13;100511.84;;;21.06;69.42
55576;BME280;41437;45.478;9.116;2022-10-16T15:58:15;100540.41;;;21.08;70.53
55576;BME280;41437;45.478;9.116;2022-10-16T16:01:18;100531.69;;;20.96;70.97
55576;BME280;41437;45.478;9.116;2022-10-16T16:04:20;100537.81;;;20.84;72.64
55576;BME280;41437;45.478;9.116;2022-10-16T16:07:22;100528.28;;;20.72;72.18
55576;BME280;41437;45.478;9.116;2022-10-16T16:10:25;100498.53;;;20.48;72.72
55576;BME280;41437;45.478;9.116;2022-10-16T16:13:27;100532.75;;;20.59;72.05